Aeropuerto Internacional de la Ciudad de México, México

7:15 PM CST en Febrero 06, 2016 (GMT -0600)
Lic Benito Juarez International | | Change Station
CLOSE
Current Station
Aeropuerto
Location: Mexico City Airport,
Altura: 7343 ft
Estaciones meteorológicas cercanas

Alt 7343 ft 19.43 °N, 99.10 °W | Updated 4 minutes ago

Clear
Despejado
59 ° F
Sensación térmica 59 ° F
N
8
Viento Variable Viento desde NNO

Hoy
Alta -- | Baja -- ° F
--% Posibilidad de precipitaciones
Ayer
Alta -- | Baja -- ° F
Precip. -- pul
Presión 30.40 pul
Visibilidad 7.0 Millas
Nubes Despejado
Punto de rocío 36 ° F
Humedad 42%
Precipitaciones 0.00 pul
Espesor de la nieve No disponible.
7:09 AM 6:31 PM
Creciente menguante, 3% visible
SPECI MMMX 070111Z 33007KT 7SM SKC 15/02 A3040 NOSIG RMK HZY CI
Presión 30.40 pul
Visibilidad 7.0 Millas
Nubes Despejado
Punto de rocío 36 ° F
Humedad 42%
Precipitaciones 0.00 pul
Espesor de la nieve No disponible.
7:09 AM 6:31 PM
Creciente menguante, 3% visible
SPECI MMMX 070111Z 33007KT 7SM SKC 15/02 A3040 NOSIG RMK HZY CI

10-Day Weather Forecast

No radar image for this location.
×

Almanac

Astronomía

Feb. 06, 2016 Salida Puesta
Hora real
Crepúsculo civil
Crepúsculo náutico
Crepúsculo astronómico
Luna
Horas de luz
Horas de luz
Tomorrow will be .
, % of the Moon is Illuminated

Extremos de hoy

Máximos del país Bajas del país

Community

WunderPhotos

Upload Photos

1,891,117 ¡fotos cargadas!

WunderBlog® & News

Nearby

Calidad del aire

  Calidad del aire Índice AQ Contaminante
Not available.

Grosos de nieve

Estación Profundido Altura

Actividad de terremotos

Ciudad Distance Mag. Tiempo y dato
Magnitud mínima muestra es 2,5.

Temperaturas de aguas costeras

Lugar Temperatura

Stations

Estaciones meteorológicas cercanas

Ubicación de la estación Temp. Vientos helados Punto de rocío Humedad Viento Precip. Alt Actualizado Tipo